Time;durP1;ratioP1;P1;durP2;ratioP2;P2;SDS_P1;SDS_P2;PMS_P1;PMS_P2;Temp;Humidity;BMP_temperature;BMP_pressure;BME280_temperature;BME280_humidity;BME280_pressure;Samples;Min_cycle;Max_cycle;Signal;HPM_P1;HPM_P2
2022/11/01 00:01:57;;;;;;;;;6.00;6.00;;;;;21.54;60.17;101244.95;106375;1286;21927;-84
2022/11/01 00:04:24;;;;;;;;;8.00;8.00;;;;;21.55;60.09;101242.48;106424;1294;18346;-84
2022/11/01 00:06:51;;;;;;;;;9.00;8.00;;;;;21.54;60.11;101240.41;106380;1294;18482;-83
2022/11/01 00:09:18;;;;;;;;;7.00;7.00;;;;;21.53;60.05;101237.61;106359;1294;21084;-82
2022/11/01 00:11:46;;;;;;;;;6.00;6.00;;;;;21.54;60.11;101233.86;106377;1286;18270;-84
2022/11/01 00:14:14;;;;;;;;;8.50;8.00;;;;;21.53;60.03;101234.80;106354;1279;18532;-83
2022/11/01 00:16:41;;;;;;;;;6.00;6.00;;;;;21.54;60.11;101242.38;106321;1284;19509;-84
2022/11/01 00:19:08;;;;;;;;;10.00;10.00;;;;;21.53;60.12;101234.98;106404;1294;18320;-84
2022/11/01 00:21:36;;;;;;;;;10.00;6.00;;;;;21.54;60.11;101234.91;106412;1294;18589;-84
2022/11/01 00:24:03;;;;;;;;;8.00;8.00;;;;;21.54;60.14;101233.31;106335;1278;24601;-84
2022/11/01 00:26:30;;;;;;;;;6.00;6.00;;;;;21.54;60.11;101233.78;106492;1286;18765;-84
2022/11/01 00:28:57;;;;;;;;;8.00;6.00;;;;;21.53;60.03;101229.52;106356;1293;18522;-83
2022/11/01 00:31:25;;;;;;;;;8.00;6.00;;;;;21.53;60.08;101231.05;106377;1278;19265;-84
2022/11/01 00:33:52;;;;;;;;;6.00;6.00;;;;;21.54;59.98;101231.34;106330;1282;21431;-84
2022/11/01 00:36:19;;;;;;;;;5.00;5.00;;;;;21.53;59.84;101230.63;106367;1294;18504;-83
2022/11/01 00:38:47;;;;;;;;;8.00;8.00;;;;;21.53;60.07;101224.83;106345;1287;21070;-84
2022/11/01 00:41:14;;;;;;;;;7.00;6.00;;;;;21.53;60.00;101224.48;106390;1286;19549;-84
2022/11/01 00:43:41;;;;;;;;;5.00;5.00;;;;;21.53;59.87;101226.12;106482;1286;18516;-84
2022/11/01 00:46:09;;;;;;;;;6.00;6.00;;;;;21.54;60.05;101229.97;106447;1294;19846;-83
2022/11/01 00:48:36;;;;;;;;;6.00;6.00;;;;;21.53;59.92;101228.10;106367;1285;19610;-83
2022/11/01 00:51:03;;;;;;;;;5.50;5.50;;;;;21.54;59.97;101230.20;106358;1285;19999;-84
2022/11/01 00:53:31;;;;;;;;;5.00;5.00;;;;;21.53;59.98;101228.30;106422;1286;21571;-84
2022/11/01 00:55:58;;;;;;;;;7.00;5.00;;;;;21.53;59.97;101221.17;106351;1293;22955;-83
2022/11/01 00:58:25;;;;;;;;;8.00;5.50;;;;;21.53;59.91;101218.52;106352;1285;22018;-84
2022/11/01 01:00:53;;;;;;;;;6.00;6.00;;;;;21.53;60.06;101217.79;106390;1294;19655;-84
2022/11/01 01:03:20;;;;;;;;;4.00;4.00;;;;;21.53;59.89;101214.16;106385;1286;18413;-84
2022/11/01 01:05:47;;;;;;;;;7.00;6.00;;;;;21.53;59.85;101207.73;106365;1286;18456;-84
2022/11/01 01:08:15;;;;;;;;;6.00;6.00;;;;;21.52;59.88;101199.15;106393;1294;19296;-83
2022/11/01 01:10:42;;;;;;;;;5.00;5.00;;;;;21.53;59.90;101194.17;106293;1293;19079;-84
2022/11/01 01:13:09;;;;;;;;;6.00;6.00;;;;;21.53;59.87;101193.63;106361;1294;20338;-84
2022/11/01 01:15:36;;;;;;;;;5.00;5.00;;;;;21.51;59.94;101183.44;106324;1286;19638;-83
2022/11/01 01:18:04;;;;;;;;;6.00;5.00;;;;;21.53;59.82;101185.38;106354;1272;18977;-84
2022/11/01 01:20:31;;;;;;;;;5.00;5.00;;;;;21.52;59.96;101186.02;106370;1279;18845;-84
2022/11/01 01:22:58;;;;;;;;;11.00;8.00;;;;;21.52;59.83;101177.64;106355;1285;21511;-84
2022/11/01 01:25:26;;;;;;;;;8.00;6.00;;;;;21.52;59.89;101172.39;106473;1285;18805;-84
2022/11/01 01:27:53;;;;;;;;;5.50;5.50;;;;;21.53;59.86;101174.33;106368;1285;21147;-84
2022/11/01 01:30:20;;;;;;;;;9.00;8.00;;;;;21.53;59.81;101169.26;106464;1294;22966;-83
2022/11/01 01:32:47;;;;;;;;;6.00;6.00;;;;;21.52;59.88;101171.09;106411;1292;18470;-84
2022/11/01 01:35:15;;;;;;;;;8.00;6.00;;;;;21.52;60.02;101165.84;106360;1294;19514;-84
2022/11/01 01:37:42;;;;;;;;;7.00;6.50;;;;;21.53;60.03;101170.14;106318;1288;20963;-84
2022/11/01 01:40:10;;;;;;;;;4.00;4.00;;;;;21.51;60.10;101166.17;106464;1300;22952;-84
2022/11/01 01:42:37;;;;;;;;;6.00;6.00;;;;;21.51;60.13;101169.61;106331;1285;23403;-84
2022/11/01 01:45:06;;;;;;;;;5.00;5.00;;;;;21.51;59.92;101172.00;106374;1278;19302;-84
2022/11/01 01:47:33;;;;;;;;;6.00;6.00;;;;;21.51;59.93;101172.52;106424;1276;21979;-83
2022/11/01 01:50:00;;;;;;;;;5.00;5.00;;;;;21.51;60.08;101170.29;106331;1279;18606;-84
2022/11/01 01:52:28;;;;;;;;;9.00;8.00;;;;;21.50;59.88;101165.02;106451;1293;19181;-84
2022/11/01 01:54:55;;;;;;;;;4.00;4.00;;;;;21.50;59.86;101159.70;106437;1287;19756;-84
2022/11/01 01:57:22;;;;;;;;;5.00;5.00;;;;;21.50;59.81;101164.60;106454;1288;26719;-84
2022/11/01 01:59:51;;;;;;;;;9.00;9.00;;;;;21.52;60.03;101159.17;106411;1294;19750;-83
2022/11/01 02:02:18;;;;;;;;;8.00;8.00;;;;;21.52;59.72;101160.08;106305;1294;18793;-83
2022/11/01 02:04:45;;;;;;;;;5.00;4.50;;;;;21.51;59.74;101159.96;106325;1293;18706;-84
2022/11/01 02:07:13;;;;;;;;;4.50;4.00;;;;;21.51;59.82;101156.69;106465;1295;19279;-83
2022/11/01 02:09:40;;;;;;;;;5.00;5.00;;;;;21.51;59.89;101157.38;106406;1294;18334;-83
2022/11/01 02:12:07;;;;;;;;;6.00;6.00;;;;;21.50;59.82;101154.23;106390;1294;18826;-83
2022/11/01 02:14:34;;;;;;;;;6.00;6.00;;;;;21.51;59.87;101148.16;106448;1294;19300;-83
2022/11/01 02:17:02;;;;;;;;;5.00;5.00;;;;;21.51;59.88;101147.02;106368;1294;18166;-84
2022/11/01 02:19:29;;;;;;;;;5.00;5.00;;;;;21.53;59.80;101144.91;106499;1286;18570;-83
2022/11/01 02:21:56;;;;;;;;;2.00;2.00;;;;;21.51;59.90;101146.48;106412;1294;23250;-84
2022/11/01 02:24:24;;;;;;;;;5.00;5.00;;;;;21.53;59.93;101150.15;106385;1285;19009;-84
2022/11/01 02:26:51;;;;;;;;;5.00;4.50;;;;;21.52;60.01;101149.54;106400;1293;18956;-84
2022/11/01 02:29:18;;;;;;;;;5.00;5.00;;;;;21.52;59.95;101151.30;106342;1277;22724;-84
2022/11/01 02:31:45;;;;;;;;;5.00;5.00;;;;;21.53;60.12;101148.73;106327;1279;22908;-84
2022/11/01 02:34:13;;;;;;;;;6.00;6.00;;;;;21.53;59.97;101145.42;106526;1279;18548;-84
2022/11/01 02:36:40;;;;;;;;;4.00;4.00;;;;;21.52;60.02;101144.77;106346;1293;19501;-84
2022/11/01 02:39:07;;;;;;;;;5.00;5.00;;;;;21.51;60.28;101137.77;106356;1280;18377;-84
2022/11/01 02:41:35;;;;;;;;;4.00;4.00;;;;;21.51;60.23;101132.52;106432;1286;18480;-84
2022/11/01 02:44:02;;;;;;;;;2.00;2.00;;;;;21.51;60.22;101136.27;107664;1285;20519;-84
2022/11/01 02:49:14;;;;;;;;;4.00;4.00;;;;;21.51;60.29;101137.02;106777;1294;19549;-84
2022/11/01 02:51:42;;;;;;;;;2.00;2.00;;;;;21.52;60.09;101140.17;106406;1294;19490;-84
2022/11/01 02:54:10;;;;;;;;;4.00;4.00;;;;;21.52;60.10;101145.83;106393;1285;18533;-84
2022/11/01 02:56:37;;;;;;;;;8.00;6.00;;;;;21.51;60.08;101141.41;106315;1293;18584;-84
2022/11/01 02:59:04;;;;;;;;;5.00;5.00;;;;;21.52;60.09;101142.08;106363;1279;19689;-84
2022/11/01 03:01:33;;;;;;;;;4.00;4.00;;;;;21.51;60.19;101138.52;106565;1294;18458;-83
2022/11/01 03:04:00;;;;;;;;;4.00;3.33;;;;;21.51;60.11;101144.86;106484;1286;20117;-84
2022/11/01 03:06:27;;;;;;;;;;;;;;;21.51;60.11;101135.83;106494;1278;20852;-83
2022/11/01 03:08:56;;;;;;;;;5.00;4.50;;;;;21.51;60.07;101131.84;106478;1278;18388;-83
2022/11/01 03:11:23;;;;;;;;;5.00;5.00;;;;;21.50;60.33;101134.60;106414;1294;18538;-84
2022/11/01 03:13:51;;;;;;;;;5.00;4.00;;;;;21.50;60.04;101132.96;106345;1294;19608;-84
2022/11/01 03:16:18;;;;;;;;;4.00;4.00;;;;;21.51;60.12;101141.63;106362;1292;18642;-83
2022/11/01 03:18:45;;;;;;;;;5.00;4.00;;;;;21.51;60.03;101142.85;106389;1272;21501;-84
2022/11/01 03:21:15;;;;;;;;;4.00;4.00;;;;;21.50;60.18;101146.27;106316;1289;19461;-84
2022/11/01 03:23:42;;;;;;;;;4.00;4.00;;;;;21.50;60.16;101148.14;106367;1294;18472;-84
2022/11/01 03:26:10;;;;;;;;;5.00;5.00;;;;;21.50;60.12;101150.48;106351;1293;18841;-84
2022/11/01 03:28:38;;;;;;;;;5.50;5.00;;;;;21.49;60.05;101147.30;106290;1292;24357;-85
2022/11/01 03:31:05;;;;;;;;;5.00;5.00;;;;;21.50;60.05;101149.02;106406;1272;21493;-84
2022/11/01 03:33:32;;;;;;;;;6.00;6.00;;;;;21.49;60.06;101145.08;106347;1288;18397;-84
2022/11/01 03:36:00;;;;;;;;;5.00;5.00;;;;;21.50;60.01;101143.23;106336;1292;23570;-84
2022/11/01 03:38:27;;;;;;;;;5.00;5.00;;;;;21.48;59.94;101143.10;106373;1288;19505;-84
2022/11/01 03:40:54;;;;;;;;;4.00;4.00;;;;;21.48;60.04;101142.11;106531;1286;18660;-83
2022/11/01 03:43:21;;;;;;;;;6.00;5.00;;;;;21.49;59.98;101146.61;106426;1293;19603;-83
2022/11/01 03:45:49;;;;;;;;;6.00;6.00;;;;;21.49;59.87;101149.52;106316;1286;19688;-83
2022/11/01 03:48:16;;;;;;;;;6.00;6.00;;;;;21.49;59.77;101157.15;106434;1294;18705;-83
2022/11/01 03:50:43;;;;;;;;;5.50;4.50;;;;;21.49;59.89;101160.41;106453;1284;19346;-83
2022/11/01 03:53:10;;;;;;;;;5.50;5.50;;;;;21.49;59.94;101150.60;106338;1294;18322;-83
2022/11/01 03:55:38;;;;;;;;;5.50;4.50;;;;;21.48;59.96;101147.48;106451;1294;18537;-83
2022/11/01 03:58:06;;;;;;;;;6.00;6.00;;;;;21.47;59.80;101146.14;106451;1294;19289;-83
2022/11/01 04:00:33;;;;;;;;;6.00;6.00;;;;;21.47;59.78;101139.15;106468;1289;18437;-83
2022/11/01 04:03:01;;;;;;;;;4.00;4.00;;;;;21.47;59.63;101135.16;106429;1299;18507;-82
2022/11/01 04:05:28;;;;;;;;;12.00;12.00;;;;;21.46;59.66;101137.59;106445;1295;19740;-83
2022/11/01 04:07:55;;;;;;;;;6.00;5.00;;;;;21.46;59.70;101134.67;106444;1278;18425;-83
2022/11/01 04:10:22;;;;;;;;;4.00;2.00;;;;;21.46;59.65;101126.90;106350;1294;19212;-82
2022/11/01 04:12:50;;;;;;;;;8.00;6.00;;;;;21.46;59.74;101119.66;106348;1271;20581;-82
2022/11/01 04:20:48;;;;;;;;;4.50;3.50;;;;;21.45;59.65;101111.55;106412;1285;20896;-84
2022/11/01 04:23:15;;;;;;;;;6.00;6.00;;;;;21.45;59.70;101112.23;106441;1292;20307;-83
2022/11/01 04:25:42;;;;;;;;;8.00;6.00;;;;;21.45;59.52;101100.61;106367;1286;18832;-83
2022/11/01 04:28:09;;;;;;;;;7.00;7.00;;;;;21.46;59.63;101090.57;106492;1285;19477;-83
2022/11/01 04:30:37;;;;;;;;;11.00;9.33;;;;;21.46;59.85;101089.61;106414;1285;20072;-83
2022/11/01 04:33:04;;;;;;;;;7.00;5.50;;;;;21.47;59.50;101094.63;106457;1278;18616;-84
2022/11/01 04:35:31;;;;;;;;;;;;;;;21.46;59.63;101108.89;106488;1278;19319;-84
2022/11/01 04:37:58;;;;;;;;;7.00;7.00;;;;;21.47;59.68;101121.02;106380;1286;18246;-83
2022/11/01 04:40:26;;;;;;;;;10.00;10.00;;;;;21.47;59.69;101121.69;106366;1294;21639;-83
2022/11/01 04:42:53;;;;;;;;;6.00;6.00;;;;;21.47;59.57;101128.85;106453;1286;19552;-83
2022/11/01 04:45:20;;;;;;;;;8.00;7.00;;;;;21.47;59.50;101130.11;106463;1278;18603;-83
2022/11/01 04:47:51;;;;;;;;;5.00;5.00;;;;;21.47;59.64;101119.92;106388;1294;19223;-84
2022/11/01 04:50:19;;;;;;;;;5.00;5.00;;;;;21.45;59.59;101127.51;106361;1294;19413;-84
2022/11/01 04:52:46;;;;;;;;;5.50;5.50;;;;;21.46;59.72;101131.09;106336;1286;19874;-84
2022/11/01 04:55:13;;;;;;;;;5.00;5.00;;;;;21.47;59.53;101127.21;106361;1285;22465;-83
2022/11/01 04:57:40;;;;;;;;;8.00;8.00;;;;;21.46;59.59;101131.84;106333;1275;22952;-83
2022/11/01 05:00:10;;;;;;;;;2.00;2.00;;;;;21.46;59.49;101124.58;106408;1278;20418;-84
2022/11/01 05:02:37;;;;;;;;;6.00;6.00;;;;;21.45;59.58;101129.35;106402;1285;21565;-83
2022/11/01 05:05:04;;;;;;;;;2.00;2.00;;;;;21.45;59.48;101119.91;106536;1286;22222;-84
2022/11/01 05:07:31;;;;;;;;;8.00;8.00;;;;;21.45;59.43;101097.58;106432;1278;18203;-83
2022/11/01 05:09:59;;;;;;;;;4.00;4.00;;;;;21.45;59.27;101099.02;106404;1286;21683;-83
2022/11/01 05:12:26;;;;;;;;;8.00;8.00;;;;;21.44;59.52;101095.67;106392;1286;22783;-83
2022/11/01 05:14:53;;;;;;;;;6.50;6.50;;;;;21.44;59.45;101092.45;106455;1286;18562;-83
2022/11/01 05:17:21;;;;;;;;;8.00;6.00;;;;;21.45;59.30;101101.98;106437;1278;21751;-83
2022/11/01 05:19:48;;;;;;;;;5.00;4.00;;;;;21.44;59.38;101095.67;106306;1279;22847;-83
2022/11/01 05:22:16;;;;;;;;;10.00;10.00;;;;;21.43;59.29;101085.64;106344;1286;21900;-81
2022/11/01 05:24:43;;;;;;;;;5.00;5.00;;;;;21.43;59.23;101079.59;106347;1285;20152;-82
2022/11/01 05:27:10;;;;;;;;;8.00;8.00;;;;;21.45;59.25;101075.42;106370;1293;23097;-83
2022/11/01 05:29:38;;;;;;;;;8.00;8.00;;;;;21.43;59.21;101072.30;106371;1285;19800;-83
2022/11/01 05:32:05;;;;;;;;;8.00;6.00;;;;;21.43;59.19;101077.45;106335;1289;18522;-83
2022/11/01 05:34:32;;;;;;;;;8.00;6.00;;;;;21.43;59.25;101070.33;106340;1294;19461;-83
2022/11/01 05:37:00;;;;;;;;;5.00;5.00;;;;;21.43;59.26;101066.77;106378;1294;23619;-84
2022/11/01 05:39:27;;;;;;;;;8.00;7.00;;;;;21.42;59.28;101058.81;106357;1285;21887;-83
2022/11/01 05:41:54;;;;;;;;;3.00;3.00;;;;;21.42;59.41;101063.37;106377;1276;19839;-83
2022/11/01 05:44:21;;;;;;;;;9.00;6.00;;;;;21.44;59.19;101070.38;106443;1288;18442;-83
2022/11/01 05:46:49;;;;;;;;;5.00;5.00;;;;;21.44;59.18;101062.38;106474;1278;18676;-82
2022/11/01 05:49:16;;;;;;;;;9.00;9.00;;;;;21.45;59.22;101067.76;106466;1293;19505;-84
2022/11/01 05:51:43;;;;;;;;;9.50;9.50;;;;;21.44;59.13;101066.90;106657;1285;18293;-83
2022/11/01 05:54:11;;;;;;;;;4.00;4.00;;;;;21.42;59.30;101058.12;106405;1293;22900;-83
2022/11/01 05:56:38;;;;;;;;;8.00;8.00;;;;;21.44;59.30;101055.73;106390;1293;19938;-84
2022/11/01 05:59:05;;;;;;;;;8.00;6.00;;;;;21.46;59.38;101045.43;106601;1278;20029;-84
2022/11/01 06:01:33;;;;;;;;;8.00;6.00;;;;;21.47;59.64;101040.42;106460;1272;21791;-86
2022/11/01 06:04:00;;;;;;;;;6.00;6.00;;;;;21.50;59.75;101037.55;106648;1294;20991;-81
2022/11/01 06:06:28;;;;;;;;;5.00;5.00;;;;;21.54;60.08;101049.85;106497;1278;21376;-83
2022/11/01 06:08:55;;;;;;;;;4.00;4.00;;;;;21.54;60.47;101057.99;106542;1276;20253;-82
2022/11/01 06:11:22;;;;;;;;;4.50;4.50;;;;;21.55;60.59;101066.28;106547;1276;20536;-83
2022/11/01 06:13:50;;;;;;;;;4.00;2.00;;;;;21.54;61.04;101083.59;106521;1285;18585;-83
2022/11/01 06:16:17;;;;;;;;;8.00;6.00;;;;;21.52;60.97;101083.89;106568;1284;20239;-83
2022/11/01 06:18:44;;;;;;;;;6.00;6.00;;;;;21.52;61.04;101081.55;106426;1300;19712;-83
2022/11/01 06:21:12;;;;;;;;;7.00;5.50;;;;;21.51;60.93;101080.33;106387;1280;19075;-84
2022/11/01 06:23:39;;;;;;;;;6.00;6.00;;;;;21.51;60.85;101080.74;106373;1285;18701;-83
2022/11/01 06:26:06;;;;;;;;;6.00;6.00;;;;;21.50;60.82;101075.69;106566;1292;19447;-84
2022/11/01 06:28:33;;;;;;;;;6.00;6.00;;;;;21.49;60.88;101070.55;106419;1288;18386;-83
2022/11/01 06:31:01;;;;;;;;;2.00;2.00;;;;;21.49;60.77;101073.31;106479;1278;19993;-82
2022/11/01 06:33:28;;;;;;;;;8.00;6.00;;;;;21.49;60.68;101068.27;106379;1294;19571;-83
2022/11/01 06:35:56;;;;;;;;;4.00;4.00;;;;;21.49;60.83;101059.06;106425;1287;19799;-85
2022/11/01 06:38:23;;;;;;;;;5.00;5.00;;;;;21.50;60.62;101060.32;106469;1285;18507;-84
2022/11/01 06:40:50;;;;;;;;;;;;;;;21.50;60.72;101061.67;106425;1279;19477;-84
2022/11/01 06:43:18;;;;;;;;;4.00;2.00;;;;;21.49;60.67;101059.81;107067;1293;18441;-84
2022/11/01 06:45:45;;;;;;;;;5.00;5.00;;;;;21.50;60.48;101060.66;107175;1293;18684;-84
2022/11/01 06:48:12;;;;;;;;;5.00;5.00;;;;;21.50;60.55;101053.56;106498;1293;19129;-86
2022/11/01 06:50:40;;;;;;;;;5.00;5.00;;;;;21.50;60.63;101044.09;106347;1294;18535;-86
2022/11/01 06:53:07;;;;;;;;;5.00;5.00;;;;;21.49;60.61;101039.84;106352;1280;21503;-84
2022/11/01 06:55:34;;;;;;;;;4.00;4.00;;;;;21.49;60.52;101026.45;106483;1293;19399;-84
2022/11/01 06:58:02;;;;;;;;;2.00;2.00;;;;;21.50;60.45;101016.86;106439;1294;18471;-84
2022/11/01 07:00:29;;;;;;;;;7.00;7.00;;;;;21.50;60.40;101008.97;106332;1285;18526;-85
2022/11/01 07:02:56;;;;;;;;;6.00;5.00;;;;;21.50;60.55;101002.50;106422;1285;21578;-84
2022/11/01 07:05:23;;;;;;;;;6.00;5.00;;;;;21.50;60.42;101001.74;106446;1285;18523;-87
2022/11/01 07:07:51;;;;;;;;;4.00;4.00;;;;;21.50;60.71;100993.56;106365;1285;26767;-84
2022/11/01 07:10:18;;;;;;;;;6.00;5.00;;;;;21.48;60.56;100983.27;106479;1278;21057;-84
2022/11/01 07:12:45;;;;;;;;;5.00;4.00;;;;;21.49;60.65;100975.88;106390;1277;18840;-82
2022/11/01 07:15:13;;;;;;;;;4.00;4.00;;;;;21.49;60.69;100972.40;106402;1286;21589;-83
2022/11/01 07:17:40;;;;;;;;;6.00;6.00;;;;;21.50;60.86;100978.60;106361;1294;19609;-83
2022/11/01 07:20:07;;;;;;;;;4.00;4.00;;;;;21.53;60.78;100979.62;106445;1294;18289;-84
2022/11/01 07:22:34;;;;;;;;;8.00;8.00;;;;;21.53;60.98;100968.44;106468;1294;18993;-85
2022/11/01 07:25:02;;;;;;;;;4.00;4.00;;;;;21.54;61.02;100956.91;106444;1285;21605;-83
2022/11/01 07:27:29;;;;;;;;;8.00;8.00;;;;;21.54;61.24;100947.23;106455;1278;19652;-84
2022/11/01 07:29:56;;;;;;;;;4.00;4.00;;;;;21.54;61.48;100943.79;106482;1294;18696;-84
2022/11/01 07:32:24;;;;;;;;;9.00;8.00;;;;;21.53;61.49;100932.27;106464;1294;19576;-85
2022/11/01 07:34:51;;;;;;;;;7.00;6.00;;;;;21.53;61.52;100930.63;106418;1272;19734;-86
2022/11/01 07:37:18;;;;;;;;;5.50;5.50;;;;;21.52;61.43;100937.70;106505;1285;18740;-84
2022/11/01 07:39:46;;;;;;;;;6.00;6.00;;;;;21.50;61.59;100935.13;106425;1285;19341;-85
2022/11/01 07:42:13;;;;;;;;;5.00;5.00;;;;;21.49;61.76;100927.89;106451;1294;18437;-85
2022/11/01 07:44:44;;;;;;;;;6.00;6.00;;;;;21.50;61.68;100922.28;106476;1294;18472;-86
2022/11/01 07:47:11;;;;;;;;;8.00;6.00;;;;;21.51;61.68;100928.33;106457;1287;20751;-83
2022/11/01 07:49:38;;;;;;;;;6.00;5.00;;;;;21.50;61.75;100930.43;106349;1289;18435;-84
2022/11/01 07:52:06;;;;;;;;;5.00;5.00;;;;;21.50;61.85;100926.45;106498;1294;18625;-84
2022/11/01 07:54:33;;;;;;;;;5.00;5.00;;;;;21.51;61.69;100909.76;106471;1294;19484;-84
2022/11/01 07:57:00;;;;;;;;;5.00;5.00;;;;;21.52;61.84;100895.25;106474;1278;19513;-84
2022/11/01 07:59:27;;;;;;;;;8.00;8.00;;;;;21.53;61.74;100889.21;106606;1294;18515;-85
2022/11/01 08:01:55;;;;;;;;;5.00;5.00;;;;;21.53;61.82;100892.27;106547;1294;231330;-85
2022/11/01 08:04:23;;;;;;;;;6.00;6.00;;;;;21.52;61.90;100891.13;106542;1294;18713;-85
2022/11/01 08:06:50;;;;;;;;;5.00;5.00;;;;;21.53;61.92;100910.65;106455;1272;20365;-85
2022/11/01 08:09:18;;;;;;;;;5.00;5.00;;;;;21.53;62.12;100925.92;106454;1276;19135;-85
2022/11/01 08:11:45;;;;;;;;;6.00;5.00;;;;;21.52;62.01;100914.23;106361;1278;23612;-85
2022/11/01 08:14:12;;;;;;;;;9.50;9.50;;;;;21.43;61.83;100910.02;106385;1294;18519;-85
2022/11/01 08:16:40;;;;;;;;;10.00;9.00;;;;;21.33;61.57;100922.21;106512;1278;19421;-85
2022/11/01 08:19:07;;;;;;;;;12.00;10.00;;;;;21.31;61.34;100919.91;106367;1278;21265;-85
2022/11/01 08:21:35;;;;;;;;;12.00;10.00;;;;;21.28;60.98;100926.61;106443;1286;20223;-85
2022/11/01 08:24:02;;;;;;;;;16.00;15.00;;;;;21.29;60.63;100951.63;106399;1300;19458;-86
2022/11/01 08:26:29;;;;;;;;;17.00;16.00;;;;;21.26;60.30;100956.63;106402;1294;18820;-84
2022/11/01 08:28:57;;;;;;;;;15.00;12.00;;;;;21.32;60.17;100972.48;106274;1294;18794;-85
2022/11/01 08:31:24;;;;;;;;;12.50;12.50;;;;;21.36;60.03;100980.46;106549;1295;22902;-85
2022/11/01 08:33:51;;;;;;;;;12.00;10.00;;;;;21.40;60.09;100973.94;106512;1277;20009;-85
2022/11/01 08:36:20;;;;;;;;;13.00;10.00;;;;;21.44;60.42;100976.45;106373;1285;19052;-86
2022/11/01 08:38:48;;;;;;;;;37.00;29.50;;;;;21.49;60.29;100962.04;106373;1286;20243;-84
2022/11/01 08:41:16;;;;;;;;;93.00;66.00;;;;;21.50;60.33;100962.75;106487;1279;18815;-85
2022/11/01 08:43:44;;;;;;;;;89.00;65.00;;;;;21.52;60.48;100960.09;106437;1272;18765;-84
2022/11/01 08:46:11;;;;;;;;;90.50;67.00;;;;;21.55;60.48;100969.90;106393;1276;21126;-84
2022/11/01 08:48:38;;;;;;;;;99.00;74.00;;;;;21.56;60.43;100965.21;106331;1284;22921;-83
2022/11/01 08:51:05;;;;;;;;;87.00;65.00;;;;;21.57;60.73;100971.64;106328;1279;21522;-84
2022/11/01 08:53:33;;;;;;;;;81.00;56.00;;;;;21.58;60.83;100977.17;106364;1277;21887;-85
2022/11/01 08:56:00;;;;;;;;;86.00;62.00;;;;;21.58;60.70;100984.95;106369;1287;22596;-83
2022/11/01 08:58:27;;;;;;;;;66.00;51.00;;;;;21.60;60.78;100987.46;106372;1286;23945;-84
2022/11/01 09:00:54;;;;;;;;;56.00;46.50;;;;;21.59;61.02;100990.16;106389;1284;21058;-83
2022/11/01 09:03:22;;;;;;;;;60.00;46.00;;;;;21.62;61.43;100993.11;106481;1276;19094;-84
2022/11/01 09:05:49;;;;;;;;;41.50;34.50;;;;;21.60;61.65;100994.90;106428;1278;19597;-82
2022/11/01 09:08:16;;;;;;;;;40.00;36.00;;;;;21.59;61.89;101001.83;106371;1300;19255;-83
2022/11/01 09:10:44;;;;;;;;;28.50;25.50;;;;;21.57;62.02;101003.42;106363;1271;20033;-84
2022/11/01 09:13:11;;;;;;;;;35.00;31.00;;;;;21.55;61.74;101003.17;106401;1285;23492;-83
2022/11/01 09:15:39;;;;;;;;;33.00;26.00;;;;;21.56;61.96;101009.40;106392;1289;19464;-81
2022/11/01 09:18:06;;;;;;;;;27.00;22.00;;;;;21.59;61.93;101009.98;106349;1278;19325;-84
2022/11/01 09:20:34;;;;;;;;;20.00;18.00;;;;;21.58;62.20;101012.40;106351;1286;20106;-82
2022/11/01 09:23:01;;;;;;;;;17.00;16.00;;;;;21.57;61.91;100997.95;106378;1293;20956;-82
2022/11/01 09:25:28;;;;;;;;;27.50;22.50;;;;;21.58;62.20;100999.48;106375;1277;22131;-81
2022/11/01 09:27:55;;;;;;;;;25.50;19.00;;;;;21.59;62.16;101000.49;106317;1293;25322;-80
2022/11/01 09:30:23;;;;;;;;;17.50;15.00;;;;;21.61;62.25;100993.90;106356;1278;19520;-81
2022/11/01 09:32:50;;;;;;;;;19.00;13.50;;;;;21.63;62.14;100996.08;106336;1293;18837;-81
2022/11/01 09:35:18;;;;;;;;;13.00;13.00;;;;;21.64;62.19;101003.95;106362;1285;19133;-80
2022/11/01 09:37:45;;;;;;;;;17.00;15.00;;;;;21.64;62.29;100984.88;106508;1294;22909;-79
2022/11/01 09:40:13;;;;;;;;;15.50;15.00;;;;;21.65;62.22;100982.06;106418;1285;20290;-82
2022/11/01 09:42:41;;;;;;;;;12.00;10.00;;;;;21.65;62.18;101002.39;106385;1293;18468;-84
2022/11/01 09:45:08;;;;;;;;;12.00;12.00;;;;;21.67;62.19;101003.27;106378;1276;20911;-83
2022/11/01 09:47:36;;;;;;;;;17.50;17.50;;;;;21.68;62.18;101010.76;106654;1272;19180;-85
2022/11/01 09:50:03;;;;;;;;;13.00;10.00;;;;;21.69;62.32;101000.52;106446;1272;18923;-81
2022/11/01 09:52:30;;;;;;;;;14.00;10.00;;;;;21.65;62.31;101008.41;106305;1279;22710;-81
2022/11/01 09:54:58;;;;;;;;;17.50;15.00;;;;;21.59;62.28;101011.82;106317;1277;18435;-80
2022/11/01 09:57:25;;;;;;;;;15.00;12.50;;;;;21.55;61.95;101012.23;106439;1278;20317;-84
2022/11/01 09:59:53;;;;;;;;;14.00;13.00;;;;;21.48;61.41;101018.02;106404;1285;24045;-89
2022/11/01 10:02:20;;;;;;;;;16.00;13.00;;;;;21.46;61.40;101013.48;106416;1300;18695;-84
2022/11/01 10:04:48;;;;;;;;;14.50;13.00;;;;;21.49;61.36;101016.74;106322;1285;18593;-83
2022/11/01 10:07:19;;;;;;;;;17.00;16.00;;;;;21.53;61.26;101004.51;106248;1282;22346;-87
2022/11/01 10:09:46;;;;;;;;;11.50;10.50;;;;;21.58;61.37;101005.00;106478;1285;20992;-85
2022/11/01 10:12:13;;;;;;;;;;;;;;;21.59;61.43;101000.84;106358;1294;18766;-88
2022/11/01 10:14:41;;;;;;;;;12.00;9.33;;;;;21.59;61.39;100999.08;106416;1294;23121;-87
2022/11/01 10:17:08;;;;;;;;;10.00;9.50;;;;;21.58;61.59;100986.08;106286;1293;19527;-88
2022/11/01 10:19:35;;;;;;;;;9.00;8.00;;;;;21.57;61.28;100983.41;106389;1294;18975;-87
2022/11/01 10:22:03;;;;;;;;;15.00;12.50;;;;;21.56;61.54;100979.36;106320;1286;21419;-87
2022/11/01 10:24:30;;;;;;;;;18.00;16.00;;;;;21.56;61.54;100971.59;106361;1285;21913;-88
2022/11/01 10:26:58;;;;;;;;;12.00;9.00;;;;;21.55;61.43;100968.56;106353;1278;22120;-90
2022/11/01 10:29:25;;;;;;;;;8.00;8.00;;;;;21.54;61.57;100966.86;106363;1285;22794;-89
2022/11/01 10:31:53;;;;;;;;;8.00;6.00;;;;;21.54;61.59;100958.71;106342;1285;21987;-88
2022/11/01 10:34:20;;;;;;;;;7.00;6.50;;;;;21.54;61.41;100958.41;106542;1285;18628;-86
2022/11/01 10:36:48;;;;;;;;;8.00;8.00;;;;;21.53;61.65;100964.63;107578;1288;20761;-88
2022/11/01 10:39:15;;;;;;;;;8.00;6.00;;;;;21.54;61.56;100971.98;107259;1294;19644;-86
2022/11/01 10:41:42;;;;;;;;;8.00;6.00;;;;;21.54;61.44;100974.36;107124;1288;18560;-86
2022/11/01 10:44:10;;;;;;;;;16.00;14.00;;;;;21.54;61.56;100981.21;106821;1294;21153;-86
2022/11/01 10:46:38;;;;;;;;;6.00;6.00;;;;;21.54;61.52;100966.15;106503;1278;19175;-87
2022/11/01 10:49:05;;;;;;;;;12.00;12.00;;;;;21.54;61.54;100956.95;106549;1294;18709;-86
2022/11/01 10:51:32;;;;;;;;;11.00;9.50;;;;;21.53;61.54;100951.77;106459;1275;22949;-86
2022/11/01 10:54:00;;;;;;;;;8.00;8.00;;;;;21.53;61.60;100963.56;106480;1286;18472;-86
2022/11/01 10:56:28;;;;;;;;;8.00;8.00;;;;;21.53;61.50;100961.04;106359;1294;18595;-88
2022/11/01 10:58:55;;;;;;;;;12.00;12.00;;;;;21.52;61.32;100957.86;106376;1293;19238;-86
2022/11/01 11:01:22;;;;;;;;;5.00;5.00;;;;;21.52;61.27;100955.52;106347;1294;18659;-87
2022/11/01 11:03:50;;;;;;;;;9.00;9.00;;;;;21.51;61.30;100946.64;106343;1294;19121;-87
2022/11/01 11:06:17;;;;;;;;;9.00;9.00;;;;;21.52;61.35;100966.63;106346;1280;21300;-87
2022/11/01 11:08:45;;;;;;;;;;;;;;;21.52;61.46;100977.54;106394;1279;22835;-87
2022/11/01 11:11:13;;;;;;;;;9.00;8.00;;;;;21.51;61.39;100979.05;106539;1278;20239;-86
2022/11/01 11:13:40;;;;;;;;;13.00;11.00;;;;;21.52;61.39;100987.18;106510;1285;22440;-86
2022/11/01 11:16:07;;;;;;;;;5.50;5.50;;;;;21.51;61.44;100978.02;106507;1294;19689;-87
2022/11/01 11:18:36;;;;;;;;;;;;;;;21.51;61.40;100972.01;106514;1294;18703;-87
2022/11/01 11:21:03;;;;;;;;;;;;;;;21.51;61.32;100955.04;106488;1293;19256;-87
2022/11/01 11:23:31;;;;;;;;;5.50;5.50;;;;;21.51;61.36;100943.99;106453;1287;18327;-87